createdAt,value
2018-02-19T00:01:14.228Z,8.57
2018-02-19T00:03:42.595Z,8.47
2018-02-19T00:06:10.957Z,8.50
2018-02-19T00:08:39.724Z,8.00
2018-02-19T00:11:08.082Z,7.81
2018-02-19T00:13:36.456Z,8.00
2018-02-19T00:16:04.812Z,8.04
2018-02-19T00:18:33.216Z,7.78
2018-02-19T00:21:01.588Z,7.74
2018-02-19T00:23:30.002Z,7.57
2018-02-19T00:25:58.359Z,7.52
2018-02-19T00:28:26.732Z,7.52
2018-02-19T00:30:55.102Z,7.79
2018-02-19T00:33:23.499Z,7.58
2018-02-19T00:35:51.875Z,7.61
2018-02-19T00:38:20.261Z,7.33
2018-02-19T00:40:48.625Z,7.46
2018-02-19T00:43:16.997Z,7.37
2018-02-19T00:45:45.409Z,7.28
2018-02-19T00:48:13.820Z,7.17
2018-02-19T00:50:42.188Z,7.10
2018-02-19T00:53:10.947Z,7.39
2018-02-19T00:55:39.302Z,7.31
2018-02-19T00:58:07.678Z,7.36
2018-02-19T01:00:36.053Z,7.25
2018-02-19T01:03:04.425Z,7.47
2018-02-19T01:05:32.780Z,7.53
2018-02-19T01:08:01.159Z,7.67
2018-02-19T01:10:29.520Z,7.66
2018-02-19T01:12:58.293Z,7.49
2018-02-19T01:15:26.652Z,7.68
2018-02-19T01:17:55.025Z,7.79
2018-02-19T01:20:23.392Z,7.68
2018-02-19T01:22:51.765Z,7.75
2018-02-19T01:25:20.121Z,7.59
2018-02-19T01:27:48.481Z,7.62
2018-02-19T01:30:17.265Z,7.17
2018-02-19T01:32:46.035Z,7.39
2018-02-19T01:35:14.493Z,7.39
2018-02-19T01:37:42.860Z,7.31
2018-02-19T01:40:11.251Z,7.30
2018-02-19T01:42:40.249Z,7.25
2018-02-19T01:45:08.645Z,7.23
2018-02-19T01:47:37.045Z,7.29
2018-02-19T01:50:16.695Z,7.31
2018-02-19T01:52:45.508Z,7.25
2018-02-19T01:55:13.885Z,7.21
2018-02-19T01:57:42.288Z,7.21
2018-02-19T02:00:10.669Z,7.23
2018-02-19T02:02:39.040Z,7.43
2018-02-19T02:05:07.405Z,7.35
2018-02-19T02:07:35.761Z,7.24
2018-02-19T02:10:04.114Z,7.29
2018-02-19T02:12:32.929Z,7.44
2018-02-19T02:15:01.323Z,7.60
2018-02-19T02:20:04.426Z,7.23
2018-02-19T02:22:32.788Z,7.32
2018-02-19T02:25:01.537Z,7.46
2018-02-19T02:27:29.940Z,7.20
2018-02-19T02:29:58.360Z,7.22
2018-02-19T02:32:26.701Z,7.46
2018-02-19T02:34:55.477Z,7.17
2018-02-19T02:37:23.816Z,7.07
2018-02-19T02:39:52.177Z,7.30
2018-02-19T02:42:20.555Z,7.40
2018-02-19T02:44:48.913Z,7.31
2018-02-19T02:47:17.678Z,6.91
2018-02-19T02:49:46.061Z,6.87
2018-02-19T02:52:14.409Z,7.01
2018-02-19T02:54:42.776Z,7.09
2018-02-19T02:57:11.150Z,7.10
2018-02-19T02:59:39.517Z,7.14
2018-02-19T03:02:08.010Z,6.90
2018-02-19T03:04:36.408Z,7.15
2018-02-19T03:07:04.784Z,6.83
2018-02-19T03:09:33.129Z,6.97
2018-02-19T03:12:01.504Z,7.19
2018-02-19T03:14:29.868Z,7.14
2018-02-19T03:16:58.633Z,6.92
2018-02-19T03:19:27.417Z,6.70
2018-02-19T03:21:55.773Z,6.79
2018-02-19T03:24:24.166Z,6.75
2018-02-19T03:26:53.421Z,6.59
2018-02-19T03:29:21.832Z,6.58
2018-02-19T03:31:50.220Z,6.77
2018-02-19T03:34:18.576Z,6.51
2018-02-19T03:36:46.960Z,6.53
2018-02-19T03:39:15.325Z,6.20
2018-02-19T03:41:43.679Z,6.30
2018-02-19T03:44:12.046Z,6.66
2018-02-19T03:46:40.822Z,6.84
2018-02-19T03:49:09.580Z,7.06
2018-02-19T03:51:37.940Z,6.74
2018-02-19T03:54:06.315Z,6.97
2018-02-19T03:56:34.707Z,6.84
2018-02-19T03:59:03.065Z,6.81
2018-02-19T04:01:31.443Z,6.89
2018-02-19T04:03:59.801Z,7.17
2018-02-19T04:06:28.586Z,7.13
2018-02-19T04:08:57.367Z,7.12
2018-02-19T04:11:25.811Z,6.84
2018-02-19T04:13:54.225Z,6.63
2018-02-19T04:16:22.567Z,6.78
2018-02-19T04:18:59.497Z,6.49
2018-02-19T04:21:27.924Z,6.62
2018-02-19T04:23:56.303Z,6.62
2018-02-19T04:26:24.680Z,6.42
2018-02-19T04:28:53.159Z,5.98
2018-02-19T04:31:21.514Z,5.89
2018-02-19T04:33:49.880Z,6.13
2018-02-19T04:36:18.249Z,6.42
2018-02-19T04:38:47.028Z,6.12
2018-02-19T04:41:16.073Z,6.18
2018-02-19T04:43:44.438Z,6.14
2018-02-19T04:46:12.982Z,6.45
2018-02-19T04:48:41.746Z,6.38
2018-02-19T04:51:10.216Z,6.30
2018-02-19T04:53:39.529Z,6.10
2018-02-19T04:56:07.893Z,6.31
2018-02-19T04:58:36.497Z,6.21
2018-02-19T05:01:04.869Z,6.32
2018-02-19T05:03:33.232Z,6.27
2018-02-19T05:06:01.611Z,6.00
2018-02-19T05:08:29.990Z,5.83
2018-02-19T05:10:58.370Z,6.00
2018-02-19T05:13:26.744Z,6.24
2018-02-19T05:15:55.231Z,6.10
2018-02-19T05:18:23.610Z,6.05
2018-02-19T05:20:51.980Z,6.10
2018-02-19T05:23:20.477Z,6.13
2018-02-19T05:25:48.840Z,6.22
2018-02-19T05:28:17.203Z,6.14
2018-02-19T05:30:45.584Z,6.21
2018-02-19T05:33:13.961Z,5.84
2018-02-19T05:35:42.308Z,6.14
2018-02-19T05:38:11.152Z,5.92
2018-02-19T05:40:39.574Z,5.86
2018-02-19T05:43:08.415Z,5.97
2018-02-19T05:45:36.936Z,5.78
2018-02-19T05:48:05.692Z,5.97
2018-02-19T05:50:34.213Z,6.00
2018-02-19T05:53:03.056Z,6.04
2018-02-19T05:55:31.438Z,5.92
2018-02-19T05:57:59.811Z,6.09
2018-02-19T06:00:28.204Z,6.21
2018-02-19T06:02:56.574Z,5.74
2018-02-19T06:05:25.954Z,5.87
2018-02-19T06:07:54.350Z,5.86
2018-02-19T06:10:22.708Z,5.93
2018-02-19T06:12:51.076Z,5.74
2018-02-19T06:15:19.507Z,5.81
2018-02-19T06:17:47.867Z,5.76
2018-02-19T06:20:16.245Z,5.93
2018-02-19T06:22:44.671Z,5.59
2018-02-19T06:25:13.524Z,5.45
2018-02-19T06:27:41.998Z,5.86
2018-02-19T06:30:10.380Z,5.88
2018-02-19T06:32:38.752Z,5.98
2018-02-19T06:35:07.213Z,6.15
2018-02-19T06:37:35.568Z,5.96
2018-02-19T06:40:04.421Z,6.11
2018-02-19T06:42:32.895Z,6.06
2018-02-19T06:45:01.257Z,6.06
2018-02-19T06:47:29.655Z,6.06
2018-02-19T06:49:58.020Z,6.11
2018-02-19T06:52:26.506Z,6.19
2018-02-19T06:54:54.880Z,6.53
2018-02-19T06:57:23.249Z,6.52
2018-02-19T06:59:51.638Z,6.51
2018-02-19T07:02:20.020Z,6.83
2018-02-19T07:04:48.699Z,6.80
2018-02-19T07:07:17.095Z,7.18
2018-02-19T07:09:45.503Z,7.39
2018-02-19T07:12:14.026Z,7.40
2018-02-19T07:14:42.409Z,7.90
2018-02-19T07:17:10.816Z,8.06
2018-02-19T07:19:40.210Z,8.16
2018-02-19T07:22:08.581Z,8.17
2018-02-19T07:24:36.937Z,7.86
2018-02-19T07:27:05.314Z,7.87
2018-02-19T07:29:33.664Z,8.04
2018-02-19T07:32:02.432Z,8.05
2018-02-19T07:34:30.813Z,8.03
2018-02-19T07:36:59.585Z,8.11
2018-02-19T07:39:28.486Z,7.95
2018-02-19T07:41:57.265Z,7.91
2018-02-19T07:44:25.649Z,8.13
2018-02-19T07:46:54.019Z,8.32
2018-02-19T07:49:22.385Z,8.48
2018-02-19T07:51:51.800Z,8.63
2018-02-19T07:54:20.177Z,9.18
2018-02-19T07:56:48.533Z,9.53
2018-02-19T07:59:16.902Z,9.90
2018-02-19T08:01:45.253Z,10.18
2018-02-19T08:04:13.635Z,10.50
2018-02-19T08:06:42.514Z,11.44
2018-02-19T08:09:10.956Z,11.87
2018-02-19T08:11:39.336Z,12.30
2018-02-19T08:14:07.811Z,12.71
2018-02-19T08:16:36.222Z,11.54
2018-02-19T08:19:04.587Z,11.35
2018-02-19T08:21:32.951Z,11.52
2018-02-19T08:24:01.341Z,11.69
2018-02-19T08:26:29.691Z,11.88
2018-02-19T08:28:58.044Z,12.45
2018-02-19T08:31:26.800Z,12.67
2018-02-19T08:33:55.268Z,12.76
2018-02-19T08:36:23.642Z,13.08
2018-02-19T08:38:53.067Z,13.07
2018-02-19T08:41:21.459Z,13.13
2018-02-19T08:43:50.242Z,12.88
2018-02-19T08:46:18.705Z,12.47
2018-02-19T08:48:47.091Z,11.04
2018-02-19T08:51:15.632Z,11.26
2018-02-19T08:53:44.007Z,11.69
2018-02-19T08:56:12.381Z,11.61
2018-02-19T08:58:40.733Z,11.44
2018-02-19T09:01:09.904Z,10.77
2018-02-19T09:03:38.276Z,10.98
2018-02-19T09:06:06.654Z,11.81
2018-02-19T09:08:35.039Z,11.99
2018-02-19T09:11:03.393Z,12.19
2018-02-19T09:13:31.795Z,12.60
2018-02-19T09:16:00.160Z,12.72
2018-02-19T09:18:28.552Z,12.94
2018-02-19T09:20:56.912Z,13.12
2018-02-19T09:23:25.398Z,12.54
2018-02-19T09:25:53.834Z,13.57
2018-02-19T09:28:22.257Z,13.79
2018-02-19T09:30:51.045Z,14.15
2018-02-19T09:33:19.425Z,14.58
2018-02-19T09:35:47.840Z,14.01
2018-02-19T09:38:16.596Z,14.08
2018-02-19T09:40:44.964Z,14.22
2018-02-19T09:43:13.357Z,14.11
2018-02-19T09:45:41.724Z,14.16
2018-02-19T09:48:10.136Z,13.32
2018-02-19T09:50:38.692Z,13.66
2018-02-19T09:53:07.080Z,13.95
2018-02-19T09:55:35.440Z,13.58
2018-02-19T09:58:03.824Z,13.84
2018-02-19T10:00:32.199Z,14.18
2018-02-19T10:03:00.609Z,13.71
2018-02-19T10:05:29.017Z,13.91
2018-02-19T10:07:57.459Z,13.83
2018-02-19T10:10:25.816Z,14.46
2018-02-19T10:12:54.179Z,14.62
2018-02-19T10:15:22.577Z,14.36
2018-02-19T10:17:50.938Z,14.53
2018-02-19T10:20:19.309Z,14.73
2018-02-19T10:22:47.703Z,14.27
2018-02-19T10:25:16.064Z,14.69
2018-02-19T10:27:44.451Z,15.07
2018-02-19T10:30:12.860Z,14.83
2018-02-19T10:32:41.933Z,14.35
2018-02-19T10:35:10.308Z,13.98
2018-02-19T10:37:38.673Z,14.21
2018-02-19T10:40:07.077Z,14.47
2018-02-19T10:42:35.436Z,14.42
2018-02-19T10:45:03.810Z,14.29
2018-02-19T10:47:32.229Z,14.75
2018-02-19T10:50:00.607Z,15.47
2018-02-19T10:52:28.977Z,15.38
2018-02-19T10:54:57.354Z,15.38
2018-02-19T10:57:25.733Z,14.53
2018-02-19T10:59:54.108Z,14.66
2018-02-19T11:02:23.037Z,15.38
2018-02-19T11:04:51.411Z,15.46
2018-02-19T11:07:20.194Z,14.98
2018-02-19T11:09:48.577Z,15.04
2018-02-19T11:12:16.936Z,15.57
2018-02-19T11:14:45.314Z,15.90
2018-02-19T11:17:13.691Z,16.65
2018-02-19T11:19:42.055Z,16.30
2018-02-19T11:22:10.470Z,15.67
2018-02-19T11:24:38.835Z,15.92
2018-02-19T11:27:07.312Z,16.06
2018-02-19T11:29:35.700Z,16.60
2018-02-19T11:32:04.080Z,15.99
2018-02-19T11:34:32.451Z,16.08
2018-02-19T11:37:00.957Z,15.60
2018-02-19T11:39:29.324Z,15.28
2018-02-19T11:41:57.686Z,14.92
2018-02-19T11:44:26.081Z,14.49
2018-02-19T11:46:54.447Z,13.84
2018-02-19T11:49:22.908Z,13.84
2018-02-19T11:51:51.302Z,13.82
2018-02-19T11:54:19.692Z,13.93
2018-02-19T11:56:48.073Z,13.36
2018-02-19T11:59:16.436Z,13.19
2018-02-19T12:01:44.814Z,13.27
2018-02-19T12:04:13.196Z,13.48
2018-02-19T12:06:41.571Z,13.33
2018-02-19T12:09:09.949Z,13.15
2018-02-19T12:11:38.337Z,12.99
2018-02-19T12:14:06.707Z,13.26
2018-02-19T12:16:35.073Z,13.21
2018-02-19T12:19:03.440Z,12.78
2018-02-19T12:21:31.810Z,12.65
2018-02-19T12:24:00.196Z,12.56
2018-02-19T12:26:28.560Z,12.62
2018-02-19T12:28:56.920Z,13.03
2018-02-19T12:31:25.693Z,13.41
2018-02-19T12:33:54.055Z,13.28
2018-02-19T12:36:22.424Z,13.46
2018-02-19T12:38:50.800Z,13.52
2018-02-19T12:41:20.207Z,13.48
2018-02-19T12:43:48.571Z,12.98
2018-02-19T12:46:16.941Z,13.47
2018-02-19T12:48:45.300Z,13.46
2018-02-19T12:51:13.670Z,13.02
2018-02-19T12:53:42.452Z,12.52
2018-02-19T12:56:11.200Z,12.59
2018-02-19T12:58:39.568Z,12.44
2018-02-19T13:01:07.928Z,11.89
2018-02-19T13:03:36.300Z,12.41
2018-02-19T13:06:04.665Z,12.09
2018-02-19T13:08:33.421Z,12.29
2018-02-19T13:11:01.792Z,12.27
2018-02-19T13:13:30.170Z,12.53
2018-02-19T13:15:58.550Z,12.48
2018-02-19T13:18:26.912Z,12.58
2018-02-19T13:20:55.277Z,12.25
2018-02-19T13:23:23.653Z,11.99
2018-02-19T13:25:52.016Z,11.88
2018-02-19T13:28:20.363Z,12.10
2018-02-19T13:30:49.141Z,12.13
2018-02-19T13:33:17.604Z,12.35
2018-02-19T13:35:45.957Z,12.53
2018-02-19T13:38:14.359Z,12.87
2018-02-19T13:40:42.713Z,13.11
2018-02-19T13:43:11.068Z,12.73
2018-02-19T13:45:40.384Z,12.94
2018-02-19T13:48:08.749Z,12.91
2018-02-19T13:50:37.128Z,13.01
2018-02-19T13:53:05.490Z,12.97
2018-02-19T13:55:34.264Z,13.15
2018-02-19T13:58:02.644Z,12.99
2018-02-19T14:00:31.003Z,12.91
2018-02-19T14:02:59.368Z,12.83
2018-02-19T14:05:27.749Z,12.87
2018-02-19T14:07:56.181Z,12.50
2018-02-19T14:10:24.936Z,12.78
2018-02-19T14:12:53.321Z,12.58
2018-02-19T14:15:21.680Z,13.04
2018-02-19T14:17:50.047Z,13.04
2018-02-19T14:20:18.421Z,13.08
2018-02-19T14:22:46.785Z,13.41
2018-02-19T14:25:15.224Z,13.62
2018-02-19T14:27:43.989Z,13.52
2018-02-19T14:30:12.378Z,13.44
2018-02-19T14:32:42.232Z,13.50
2018-02-19T14:35:10.601Z,13.15
2018-02-19T14:37:39.371Z,12.82
2018-02-19T14:40:07.745Z,12.67
2018-02-19T14:42:36.123Z,12.87
2018-02-19T14:45:04.476Z,12.96
2018-02-19T14:47:32.837Z,12.41
2018-02-19T14:50:01.221Z,12.79
2018-02-19T14:52:29.593Z,12.76
2018-02-19T14:54:57.980Z,12.17
2018-02-19T14:57:26.341Z,12.29
2018-02-19T14:59:54.732Z,11.98
2018-02-19T15:02:23.098Z,11.28
2018-02-19T15:04:51.471Z,11.41
2018-02-19T15:07:19.865Z,11.70
2018-02-19T15:09:48.233Z,11.71
2018-02-19T15:12:16.585Z,11.93
2018-02-19T15:14:45.344Z,11.37
2018-02-19T15:17:13.712Z,11.01
2018-02-19T15:19:42.108Z,11.36
2018-02-19T15:22:10.504Z,11.65
2018-02-19T15:24:38.864Z,11.60
2018-02-19T15:27:07.252Z,11.39
2018-02-19T15:29:35.643Z,11.51
2018-02-19T15:32:04.415Z,10.92
2018-02-19T15:34:32.813Z,11.24
2018-02-19T15:37:01.560Z,11.36
2018-02-19T15:39:29.924Z,11.43
2018-02-19T15:41:58.322Z,11.31
2018-02-19T15:44:26.712Z,11.27
2018-02-19T15:46:55.078Z,11.41
2018-02-19T15:49:23.518Z,11.64
2018-02-19T15:51:51.845Z,11.41
2018-02-19T15:54:20.226Z,11.26
2018-02-19T15:56:48.589Z,10.91
2018-02-19T15:59:16.948Z,10.90
2018-02-19T16:01:45.335Z,11.35
2018-02-19T16:04:13.698Z,11.17
2018-02-19T16:06:42.059Z,10.83
2018-02-19T16:09:10.432Z,10.96
2018-02-19T16:11:39.202Z,11.01
2018-02-19T16:14:07.564Z,10.70
2018-02-19T16:16:36.267Z,10.78
2018-02-19T16:19:04.661Z,10.71
2018-02-19T16:21:33.413Z,10.61
2018-02-19T16:24:01.878Z,10.73
2018-02-19T16:26:30.258Z,10.70
2018-02-19T16:28:58.636Z,10.54
2018-02-19T16:31:27.011Z,10.60
2018-02-19T16:33:55.389Z,10.72
2018-02-19T16:36:23.809Z,10.68
2018-02-19T16:38:52.157Z,10.73
2018-02-19T16:41:20.532Z,10.53
2018-02-19T16:43:48.888Z,10.11
2018-02-19T16:46:17.257Z,10.40
2018-02-19T16:48:45.637Z,10.24
2018-02-19T16:51:13.984Z,10.35
2018-02-19T16:53:42.743Z,10.27
2018-02-19T16:56:11.234Z,10.07
2018-02-19T16:58:39.605Z,9.68
2018-02-19T17:01:07.969Z,9.47
2018-02-19T17:03:37.257Z,9.23
2018-02-19T17:06:05.651Z,9.33
2018-02-19T17:08:34.002Z,9.14
2018-02-19T17:11:02.404Z,9.68
2018-02-19T17:13:30.784Z,9.45
2018-02-19T17:15:59.144Z,9.38
2018-02-19T17:18:27.624Z,9.54
2018-02-19T17:20:56.008Z,9.70
2018-02-19T17:23:24.402Z,9.71
2018-02-19T17:25:52.862Z,9.61
2018-02-19T17:28:21.237Z,9.25
2018-02-19T17:30:49.608Z,9.02
2018-02-19T17:33:18.020Z,9.38
2018-02-19T17:35:51.228Z,9.05
2018-02-19T17:38:19.602Z,9.37
2018-02-19T17:40:47.952Z,9.27
2018-02-19T17:43:16.320Z,9.57
2018-02-19T17:45:44.723Z,9.61
2018-02-19T17:48:13.116Z,9.47
2018-02-19T17:50:41.462Z,9.64
2018-02-19T17:53:09.843Z,9.56
2018-02-19T17:55:38.195Z,9.60
2018-02-19T17:58:06.944Z,9.38
2018-02-19T18:00:35.328Z,9.61
2018-02-19T18:03:03.683Z,9.32
2018-02-19T18:05:32.036Z,9.40
2018-02-19T18:08:00.427Z,9.43
2018-02-19T18:10:28.784Z,9.57
2018-02-19T18:12:57.144Z,9.43
2018-02-19T18:15:25.537Z,9.62
2018-02-19T18:17:54.346Z,9.67
2018-02-19T18:20:22.797Z,9.51
2018-02-19T18:22:51.655Z,9.53
2018-02-19T18:25:20.054Z,9.51
2018-02-19T18:27:48.424Z,9.53
2018-02-19T18:30:16.905Z,9.47
2018-02-19T18:32:45.272Z,9.51
2018-02-19T18:35:13.648Z,9.82
2018-02-19T18:37:42.040Z,9.78
2018-02-19T18:40:10.522Z,9.64
2018-02-19T18:42:39.063Z,9.74
2018-02-19T18:45:07.428Z,9.01
2018-02-19T18:47:35.815Z,9.31
2018-02-19T18:50:04.227Z,9.30
2018-02-19T18:52:32.575Z,9.59
2018-02-19T18:55:00.975Z,9.38
2018-02-19T18:57:30.211Z,9.53
2018-02-19T18:59:59.064Z,9.41
2018-02-19T19:02:27.425Z,8.87
2018-02-19T19:04:55.821Z,9.10
2018-02-19T19:10:58.573Z,9.24
2018-02-19T19:13:27.005Z,8.96
2018-02-19T19:15:55.372Z,9.23
2018-02-19T19:18:23.761Z,8.98
2018-02-19T19:20:52.536Z,9.31
2018-02-19T19:23:20.948Z,9.18
2018-02-19T19:25:49.314Z,9.38
2018-02-19T19:28:17.663Z,9.52
2018-02-19T19:30:46.077Z,9.37
2018-02-19T19:33:14.572Z,9.20
2018-02-19T19:35:42.935Z,8.87
2018-02-19T19:38:11.309Z,9.21
2018-02-19T19:40:39.673Z,8.95
2018-02-19T19:43:08.045Z,9.14
2018-02-19T19:45:36.411Z,9.49
2018-02-19T19:48:04.769Z,9.11
2018-02-19T19:50:33.595Z,9.07
2018-02-19T19:53:01.959Z,8.77
2018-02-19T19:55:30.341Z,9.00
2018-02-19T19:57:58.717Z,8.62
2018-02-19T20:00:27.082Z,8.49
2018-02-19T20:02:55.925Z,8.63
2018-02-19T20:05:24.424Z,8.60
2018-02-19T20:07:52.783Z,8.73
2018-02-19T20:10:21.230Z,8.88
2018-02-19T20:12:49.586Z,8.84
2018-02-19T20:15:18.326Z,8.84
2018-02-19T20:17:46.696Z,8.75
2018-02-19T20:20:15.061Z,8.72
2018-02-19T20:22:43.466Z,8.63
2018-02-19T20:25:11.825Z,8.57
2018-02-19T20:27:40.173Z,8.68
2018-02-19T20:30:08.592Z,8.53
2018-02-19T20:32:36.953Z,8.31
2018-02-19T20:35:05.325Z,8.42
2018-02-19T20:37:33.681Z,8.65
2018-02-19T20:40:02.424Z,8.81
2018-02-19T20:42:30.803Z,8.42
2018-02-19T20:44:59.164Z,8.40
2018-02-19T20:47:27.508Z,8.55
2018-02-19T20:49:56.273Z,8.23
2018-02-19T20:52:25.029Z,8.27
2018-02-19T20:54:53.596Z,8.46
2018-02-19T20:57:21.992Z,8.23
2018-02-19T20:59:50.369Z,8.07
2018-02-19T21:02:18.720Z,8.34
2018-02-19T21:04:47.320Z,8.23
2018-02-19T21:07:15.679Z,7.97
2018-02-19T21:09:44.090Z,8.14
2018-02-19T21:12:12.454Z,7.81
2018-02-19T21:14:40.832Z,7.61
2018-02-19T21:17:09.203Z,7.70
2018-02-19T21:19:37.573Z,7.79
2018-02-19T21:22:05.927Z,7.76
2018-02-19T21:24:34.677Z,7.57
2018-02-19T21:27:03.056Z,7.47
2018-02-19T21:29:31.395Z,7.46
2018-02-19T21:31:59.754Z,7.61
2018-02-19T21:34:28.668Z,7.49
2018-02-19T21:36:57.050Z,7.25
2018-02-19T21:39:25.428Z,7.28
2018-02-19T21:41:53.886Z,7.18
2018-02-19T21:44:22.671Z,6.86
2018-02-19T21:46:51.412Z,7.28
2018-02-19T21:49:19.768Z,7.50
2018-02-19T21:51:48.175Z,7.35
2018-02-19T21:54:16.972Z,6.86
2018-02-19T21:56:45.332Z,6.96
2018-02-19T21:59:13.724Z,7.32
2018-02-19T22:01:42.096Z,7.18
2018-02-19T22:04:10.463Z,7.49
2018-02-19T22:06:38.832Z,7.62
2018-02-19T22:09:07.196Z,7.73
2018-02-19T22:11:35.550Z,7.87
2018-02-19T22:14:04.316Z,7.70
2018-02-19T22:16:32.771Z,7.39
2018-02-19T22:19:01.161Z,7.19
2018-02-19T22:21:29.533Z,7.14
2018-02-19T22:23:57.896Z,7.19
2018-02-19T22:26:26.256Z,7.40
2018-02-19T22:28:54.614Z,7.51
2018-02-19T22:31:23.473Z,7.18
2018-02-19T22:33:51.832Z,7.05
2018-02-19T22:36:20.208Z,6.60
2018-02-19T22:38:48.580Z,6.50
2018-02-19T22:41:16.936Z,6.90
2018-02-19T22:43:45.347Z,7.06
2018-02-19T22:46:13.896Z,6.69
2018-02-19T22:48:42.276Z,6.79
2018-02-19T22:51:10.639Z,6.41
2018-02-19T22:53:39.412Z,6.69
2018-02-19T22:56:07.808Z,6.78
2018-02-19T22:58:36.601Z,6.85
2018-02-19T23:01:04.933Z,6.19
2018-02-19T23:03:33.299Z,6.09
2018-02-19T23:06:01.656Z,6.50
2018-02-19T23:08:30.023Z,6.71
2018-02-19T23:10:58.373Z,6.44
2018-02-19T23:13:28.012Z,6.00
2018-02-19T23:15:56.421Z,6.25
2018-02-19T23:18:24.923Z,6.68
2018-02-19T23:20:53.376Z,6.67
2018-02-19T23:23:21.769Z,6.30
2018-02-19T23:25:50.128Z,6.49
2018-02-19T23:28:18.555Z,6.58
2018-02-19T23:30:47.407Z,6.46
2018-02-19T23:33:15.804Z,6.67
2018-02-19T23:35:44.177Z,6.46
2018-02-19T23:38:12.602Z,6.51
2018-02-19T23:40:41.452Z,6.66
2018-02-19T23:43:09.837Z,6.45
2018-02-19T23:45:38.309Z,6.02
2018-02-19T23:48:06.672Z,6.44
2018-02-19T23:50:35.025Z,6.33
2018-02-19T23:53:03.403Z,6.05
2018-02-19T23:55:32.271Z,5.95
2018-02-19T23:58:01.784Z,5.86
